sensor_id;sensor_type;location;lat;lon;timestamp;P1;durP1;ratioP1;P2;durP2;ratioP2
2772;SDS011;1394;47.044;15.744;2023-03-13T00:00:56;25.63;;;2.50;;
2772;SDS011;1394;47.044;15.744;2023-03-13T00:03:24;25.50;;;2.20;;
2772;SDS011;1394;47.044;15.744;2023-03-13T00:05:54;24.90;;;2.10;;
2772;SDS011;1394;47.044;15.744;2023-03-13T00:08:21;25.30;;;2.13;;
2772;SDS011;1394;47.044;15.744;2023-03-13T00:10:48;24.97;;;1.87;;
2772;SDS011;1394;47.044;15.744;2023-03-13T00:13:17;25.90;;;2.07;;
2772;SDS011;1394;47.044;15.744;2023-03-13T00:15:44;25.37;;;2.30;;
2772;SDS011;1394;47.044;15.744;2023-03-13T00:18:11;25.07;;;2.03;;
2772;SDS011;1394;47.044;15.744;2023-03-13T00:20:39;25.47;;;2.10;;
2772;SDS011;1394;47.044;15.744;2023-03-13T00:23:06;25.40;;;2.00;;
2772;SDS011;1394;47.044;15.744;2023-03-13T00:25:33;25.23;;;2.03;;
2772;SDS011;1394;47.044;15.744;2023-03-13T00:28:00;24.93;;;1.90;;
2772;SDS011;1394;47.044;15.744;2023-03-13T00:30:29;25.30;;;2.50;;
2772;SDS011;1394;47.044;15.744;2023-03-13T00:32:56;25.00;;;1.90;;
2772;SDS011;1394;47.044;15.744;2023-03-13T00:35:23;25.00;;;2.10;;
2772;SDS011;1394;47.044;15.744;2023-03-13T00:37:50;25.30;;;2.37;;
2772;SDS011;1394;47.044;15.744;2023-03-13T00:40:20;25.20;;;2.40;;
2772;SDS011;1394;47.044;15.744;2023-03-13T00:42:49;25.30;;;2.20;;
2772;SDS011;1394;47.044;15.744;2023-03-13T00:45:16;25.17;;;2.30;;
2772;SDS011;1394;47.044;15.744;2023-03-13T00:47:44;25.23;;;2.10;;
2772;SDS011;1394;47.044;15.744;2023-03-13T00:50:14;24.67;;;1.90;;
2772;SDS011;1394;47.044;15.744;2023-03-13T00:52:41;26.83;;;2.93;;
2772;SDS011;1394;47.044;15.744;2023-03-13T00:55:08;25.03;;;2.10;;
2772;SDS011;1394;47.044;15.744;2023-03-13T00:57:36;25.40;;;2.20;;
2772;SDS011;1394;47.044;15.744;2023-03-13T01:00:03;24.70;;;1.80;;
2772;SDS011;1394;47.044;15.744;2023-03-13T01:02:31;27.00;;;2.07;;
2772;SDS011;1394;47.044;15.744;2023-03-13T01:04:59;25.70;;;2.10;;
2772;SDS011;1394;47.044;15.744;2023-03-13T01:07:27;26.10;;;2.10;;
2772;SDS011;1394;47.044;15.744;2023-03-13T01:09:55;25.10;;;1.90;;
2772;SDS011;1394;47.044;15.744;2023-03-13T01:12:22;25.37;;;1.90;;
2772;SDS011;1394;47.044;15.744;2023-03-13T01:14:49;24.80;;;1.90;;
2772;SDS011;1394;47.044;15.744;2023-03-13T01:17:16;25.00;;;1.90;;
2772;SDS011;1394;47.044;15.744;2023-03-13T01:19:43;24.97;;;1.77;;
2772;SDS011;1394;47.044;15.744;2023-03-13T01:22:12;25.07;;;2.20;;
2772;SDS011;1394;47.044;15.744;2023-03-13T01:24:42;25.37;;;2.47;;
2772;SDS011;1394;47.044;15.744;2023-03-13T01:27:10;25.50;;;2.23;;
2772;SDS011;1394;47.044;15.744;2023-03-13T01:29:37;25.80;;;2.30;;
2772;SDS011;1394;47.044;15.744;2023-03-13T01:32:05;25.90;;;2.50;;
2772;SDS011;1394;47.044;15.744;2023-03-13T01:34:34;24.93;;;2.10;;
2772;SDS011;1394;47.044;15.744;2023-03-13T01:37:01;26.60;;;2.23;;
2772;SDS011;1394;47.044;15.744;2023-03-13T01:39:31;25.10;;;2.20;;
2772;SDS011;1394;47.044;15.744;2023-03-13T01:41:58;25.23;;;2.10;;
2772;SDS011;1394;47.044;15.744;2023-03-13T01:44:26;25.50;;;2.30;;
2772;SDS011;1394;47.044;15.744;2023-03-13T01:46:53;25.13;;;2.20;;
2772;SDS011;1394;47.044;15.744;2023-03-13T01:49:21;24.97;;;2.00;;
2772;SDS011;1394;47.044;15.744;2023-03-13T01:51:50;26.20;;;2.03;;
2772;SDS011;1394;47.044;15.744;2023-03-13T01:54:22;26.47;;;2.20;;
2772;SDS011;1394;47.044;15.744;2023-03-13T01:56:53;25.70;;;2.30;;
2772;SDS011;1394;47.044;15.744;2023-03-13T01:59:22;25.00;;;1.97;;
2772;SDS011;1394;47.044;15.744;2023-03-13T02:01:49;25.33;;;2.20;;
2772;SDS011;1394;47.044;15.744;2023-03-13T02:04:19;25.63;;;2.10;;
2772;SDS011;1394;47.044;15.744;2023-03-13T02:06:48;25.73;;;2.10;;
2772;SDS011;1394;47.044;15.744;2023-03-13T02:09:18;25.47;;;2.10;;
2772;SDS011;1394;47.044;15.744;2023-03-13T02:11:48;25.37;;;2.23;;
2772;SDS011;1394;47.044;15.744;2023-03-13T02:14:20;25.13;;;1.97;;
2772;SDS011;1394;47.044;15.744;2023-03-13T02:16:49;25.63;;;2.17;;
2772;SDS011;1394;47.044;15.744;2023-03-13T02:19:17;25.20;;;2.30;;
2772;SDS011;1394;47.044;15.744;2023-03-13T02:21:46;24.93;;;2.00;;
2772;SDS011;1394;47.044;15.744;2023-03-13T02:24:18;24.60;;;1.80;;
2772;SDS011;1394;47.044;15.744;2023-03-13T02:26:48;25.33;;;2.23;;
2772;SDS011;1394;47.044;15.744;2023-03-13T02:29:15;25.30;;;2.20;;
2772;SDS011;1394;47.044;15.744;2023-03-13T02:31:44;24.73;;;2.03;;
2772;SDS011;1394;47.044;15.744;2023-03-13T02:34:11;24.83;;;1.93;;
2772;SDS011;1394;47.044;15.744;2023-03-13T02:36:39;24.83;;;2.20;;
2772;SDS011;1394;47.044;15.744;2023-03-13T02:39:07;24.57;;;1.87;;
2772;SDS011;1394;47.044;15.744;2023-03-13T02:41:36;25.20;;;2.10;;
2772;SDS011;1394;47.044;15.744;2023-03-13T02:44:05;25.07;;;1.90;;
2772;SDS011;1394;47.044;15.744;2023-03-13T02:46:42;25.27;;;2.07;;
2772;SDS011;1394;47.044;15.744;2023-03-13T02:49:19;25.13;;;1.80;;
2772;SDS011;1394;47.044;15.744;2023-03-13T02:51:46;24.70;;;1.90;;
2772;SDS011;1394;47.044;15.744;2023-03-13T02:54:15;25.47;;;2.20;;
2772;SDS011;1394;47.044;15.744;2023-03-13T02:56:44;26.20;;;2.00;;
2772;SDS011;1394;47.044;15.744;2023-03-13T02:59:12;25.47;;;2.10;;
2772;SDS011;1394;47.044;15.744;2023-03-13T03:01:39;25.80;;;2.20;;
2772;SDS011;1394;47.044;15.744;2023-03-13T03:04:07;25.00;;;2.10;;
2772;SDS011;1394;47.044;15.744;2023-03-13T03:06:34;25.33;;;2.23;;
2772;SDS011;1394;47.044;15.744;2023-03-13T03:09:01;24.80;;;1.90;;
2772;SDS011;1394;47.044;15.744;2023-03-13T03:11:28;25.50;;;1.93;;
2772;SDS011;1394;47.044;15.744;2023-03-13T03:13:55;25.20;;;2.10;;
2772;SDS011;1394;47.044;15.744;2023-03-13T03:16:24;25.13;;;2.07;;
2772;SDS011;1394;47.044;15.744;2023-03-13T03:18:51;25.40;;;2.30;;
2772;SDS011;1394;47.044;15.744;2023-03-13T03:21:18;26.13;;;2.60;;
2772;SDS011;1394;47.044;15.744;2023-03-13T03:23:48;25.43;;;2.40;;
2772;SDS011;1394;47.044;15.744;2023-03-13T03:26:15;25.50;;;2.10;;
2772;SDS011;1394;47.044;15.744;2023-03-13T03:28:43;25.20;;;2.10;;
2772;SDS011;1394;47.044;15.744;2023-03-13T03:31:11;25.07;;;2.00;;
2772;SDS011;1394;47.044;15.744;2023-03-13T03:33:40;25.00;;;2.23;;
2772;SDS011;1394;47.044;15.744;2023-03-13T03:36:08;25.77;;;2.50;;
2772;SDS011;1394;47.044;15.744;2023-03-13T03:38:35;26.30;;;2.87;;
2772;SDS011;1394;47.044;15.744;2023-03-13T03:41:03;26.00;;;2.97;;
2772;SDS011;1394;47.044;15.744;2023-03-13T03:43:31;24.97;;;2.10;;
2772;SDS011;1394;47.044;15.744;2023-03-13T03:45:58;25.53;;;2.30;;
2772;SDS011;1394;47.044;15.744;2023-03-13T03:48:25;25.30;;;2.30;;
2772;SDS011;1394;47.044;15.744;2023-03-13T03:50:54;25.20;;;2.10;;
2772;SDS011;1394;47.044;15.744;2023-03-13T03:53:21;25.57;;;2.37;;
2772;SDS011;1394;47.044;15.744;2023-03-13T03:55:48;25.47;;;2.30;;
2772;SDS011;1394;47.044;15.744;2023-03-13T03:58:16;25.00;;;2.10;;
2772;SDS011;1394;47.044;15.744;2023-03-13T04:00:43;25.23;;;2.40;;
2772;SDS011;1394;47.044;15.744;2023-03-13T04:03:10;26.00;;;2.10;;
2772;SDS011;1394;47.044;15.744;2023-03-13T04:05:37;25.33;;;2.30;;
2772;SDS011;1394;47.044;15.744;2023-03-13T04:08:07;25.67;;;2.50;;
2772;SDS011;1394;47.044;15.744;2023-03-13T04:10:35;25.90;;;2.80;;
2772;SDS011;1394;47.044;15.744;2023-03-13T04:13:02;25.33;;;2.40;;
2772;SDS011;1394;47.044;15.744;2023-03-13T04:15:30;25.50;;;2.50;;
2772;SDS011;1394;47.044;15.744;2023-03-13T04:17:57;25.23;;;2.57;;
2772;SDS011;1394;47.044;15.744;2023-03-13T04:20:24;25.00;;;2.13;;
2772;SDS011;1394;47.044;15.744;2023-03-13T04:22:53;25.30;;;2.20;;
2772;SDS011;1394;47.044;15.744;2023-03-13T04:25:23;25.57;;;2.60;;
2772;SDS011;1394;47.044;15.744;2023-03-13T04:27:50;25.97;;;2.70;;
2772;SDS011;1394;47.044;15.744;2023-03-13T04:30:17;25.30;;;2.20;;
2772;SDS011;1394;47.044;15.744;2023-03-13T04:32:44;26.43;;;2.53;;
2772;SDS011;1394;47.044;15.744;2023-03-13T04:35:15;25.30;;;2.20;;
2772;SDS011;1394;47.044;15.744;2023-03-13T04:37:42;25.80;;;2.70;;
2772;SDS011;1394;47.044;15.744;2023-03-13T04:40:10;24.83;;;2.10;;
2772;SDS011;1394;47.044;15.744;2023-03-13T04:42:39;25.77;;;2.67;;
2772;SDS011;1394;47.044;15.744;2023-03-13T04:45:06;25.10;;;2.10;;
2772;SDS011;1394;47.044;15.744;2023-03-13T04:47:35;25.50;;;2.40;;
2772;SDS011;1394;47.044;15.744;2023-03-13T04:50:03;25.93;;;2.63;;
2772;SDS011;1394;47.044;15.744;2023-03-13T04:52:30;25.17;;;2.57;;
2772;SDS011;1394;47.044;15.744;2023-03-13T04:54:58;25.70;;;2.67;;
2772;SDS011;1394;47.044;15.744;2023-03-13T04:57:26;25.40;;;2.10;;
2772;SDS011;1394;47.044;15.744;2023-03-13T04:59:54;25.00;;;2.43;;
2772;SDS011;1394;47.044;15.744;2023-03-13T05:02:22;25.40;;;2.30;;
2772;SDS011;1394;47.044;15.744;2023-03-13T05:04:50;25.73;;;2.57;;
2772;SDS011;1394;47.044;15.744;2023-03-13T05:07:17;25.07;;;2.20;;
2772;SDS011;1394;47.044;15.744;2023-03-13T05:09:45;25.37;;;2.27;;
2772;SDS011;1394;47.044;15.744;2023-03-13T05:12:12;25.20;;;2.33;;
2772;SDS011;1394;47.044;15.744;2023-03-13T05:14:39;24.87;;;1.90;;
2772;SDS011;1394;47.044;15.744;2023-03-13T05:17:08;25.10;;;2.20;;
2772;SDS011;1394;47.044;15.744;2023-03-13T05:19:36;26.40;;;2.20;;
2772;SDS011;1394;47.044;15.744;2023-03-13T05:22:03;25.30;;;2.43;;
2772;SDS011;1394;47.044;15.744;2023-03-13T05:24:31;25.27;;;2.33;;
2772;SDS011;1394;47.044;15.744;2023-03-13T05:26:58;25.10;;;2.30;;
2772;SDS011;1394;47.044;15.744;2023-03-13T05:29:28;26.00;;;2.73;;
2772;SDS011;1394;47.044;15.744;2023-03-13T05:31:57;25.33;;;2.73;;
2772;SDS011;1394;47.044;15.744;2023-03-13T05:34:28;25.90;;;2.57;;
2772;SDS011;1394;47.044;15.744;2023-03-13T05:36:55;27.37;;;4.03;;
2772;SDS011;1394;47.044;15.744;2023-03-13T05:39:23;25.27;;;2.73;;
2772;SDS011;1394;47.044;15.744;2023-03-13T05:41:50;25.40;;;2.50;;
2772;SDS011;1394;47.044;15.744;2023-03-13T05:44:18;25.27;;;2.50;;
2772;SDS011;1394;47.044;15.744;2023-03-13T05:46:45;25.00;;;2.20;;
2772;SDS011;1394;47.044;15.744;2023-03-13T05:49:12;31.63;;;8.20;;
2772;SDS011;1394;47.044;15.744;2023-03-13T05:51:41;26.47;;;3.67;;
2772;SDS011;1394;47.044;15.744;2023-03-13T05:54:08;27.70;;;3.33;;
2772;SDS011;1394;47.044;15.744;2023-03-13T05:56:35;25.57;;;2.90;;
2772;SDS011;1394;47.044;15.744;2023-03-13T05:59:02;25.37;;;2.90;;
2772;SDS011;1394;47.044;15.744;2023-03-13T06:01:29;25.73;;;3.37;;
2772;SDS011;1394;47.044;15.744;2023-03-13T06:03:58;28.57;;;4.40;;
2772;SDS011;1394;47.044;15.744;2023-03-13T06:06:25;26.97;;;3.50;;
2772;SDS011;1394;47.044;15.744;2023-03-13T06:08:53;25.30;;;2.50;;
2772;SDS011;1394;47.044;15.744;2023-03-13T06:11:21;26.10;;;2.33;;
2772;SDS011;1394;47.044;15.744;2023-03-13T06:13:49;25.47;;;2.57;;
2772;SDS011;1394;47.044;15.744;2023-03-13T06:16:17;25.27;;;2.30;;
2772;SDS011;1394;47.044;15.744;2023-03-13T06:18:44;25.80;;;2.90;;
2772;SDS011;1394;47.044;15.744;2023-03-13T06:21:11;25.17;;;2.30;;
2772;SDS011;1394;47.044;15.744;2023-03-13T06:23:38;25.20;;;2.43;;
2772;SDS011;1394;47.044;15.744;2023-03-13T06:26:10;25.00;;;2.20;;
2772;SDS011;1394;47.044;15.744;2023-03-13T06:28:37;27.07;;;2.43;;
2772;SDS011;1394;47.044;15.744;2023-03-13T06:31:05;25.57;;;3.10;;
2772;SDS011;1394;47.044;15.744;2023-03-13T06:33:34;26.20;;;3.30;;
2772;SDS011;1394;47.044;15.744;2023-03-13T06:36:03;26.47;;;2.80;;
2772;SDS011;1394;47.044;15.744;2023-03-13T06:38:35;27.50;;;3.50;;
2772;SDS011;1394;47.044;15.744;2023-03-13T06:41:06;28.40;;;3.60;;
2772;SDS011;1394;47.044;15.744;2023-03-13T06:43:39;25.90;;;3.00;;
2772;SDS011;1394;47.044;15.744;2023-03-13T06:46:07;25.47;;;2.63;;
2772;SDS011;1394;47.044;15.744;2023-03-13T06:48:34;27.20;;;2.50;;
2772;SDS011;1394;47.044;15.744;2023-03-13T06:51:02;26.03;;;2.57;;
2772;SDS011;1394;47.044;15.744;2023-03-13T06:53:29;25.97;;;2.60;;
2772;SDS011;1394;47.044;15.744;2023-03-13T06:55:59;25.40;;;2.33;;
2772;SDS011;1394;47.044;15.744;2023-03-13T06:58:27;26.17;;;2.57;;
2772;SDS011;1394;47.044;15.744;2023-03-13T07:00:59;26.53;;;2.13;;
2772;SDS011;1394;47.044;15.744;2023-03-13T07:03:27;27.50;;;3.67;;
2772;SDS011;1394;47.044;15.744;2023-03-13T07:05:54;27.00;;;2.63;;
2772;SDS011;1394;47.044;15.744;2023-03-13T07:08:22;26.97;;;2.80;;
2772;SDS011;1394;47.044;15.744;2023-03-13T07:10:50;25.50;;;2.10;;
2772;SDS011;1394;47.044;15.744;2023-03-13T07:13:17;25.50;;;2.23;;
2772;SDS011;1394;47.044;15.744;2023-03-13T07:15:45;27.30;;;2.80;;
2772;SDS011;1394;47.044;15.744;2023-03-13T07:18:15;25.87;;;2.60;;
2772;SDS011;1394;47.044;15.744;2023-03-13T07:20:43;25.23;;;2.10;;
2772;SDS011;1394;47.044;15.744;2023-03-13T07:23:10;25.43;;;2.10;;
2772;SDS011;1394;47.044;15.744;2023-03-13T07:25:38;25.00;;;1.90;;
2772;SDS011;1394;47.044;15.744;2023-03-13T07:28:06;26.57;;;3.10;;
2772;SDS011;1394;47.044;15.744;2023-03-13T07:30:34;26.20;;;2.83;;
2772;SDS011;1394;47.044;15.744;2023-03-13T07:33:02;26.07;;;2.60;;
2772;SDS011;1394;47.044;15.744;2023-03-13T07:35:31;26.20;;;2.20;;
2772;SDS011;1394;47.044;15.744;2023-03-13T07:37:58;25.57;;;2.40;;
2772;SDS011;1394;47.044;15.744;2023-03-13T07:40:25;26.07;;;2.20;;
2772;SDS011;1394;47.044;15.744;2023-03-13T07:42:54;25.43;;;2.30;;
2772;SDS011;1394;47.044;15.744;2023-03-13T07:45:24;25.90;;;2.10;;
2772;SDS011;1394;47.044;15.744;2023-03-13T07:47:59;25.17;;;1.90;;
2772;SDS011;1394;47.044;15.744;2023-03-13T07:50:26;25.80;;;2.40;;
2772;SDS011;1394;47.044;15.744;2023-03-13T07:52:55;26.00;;;2.60;;
2772;SDS011;1394;47.044;15.744;2023-03-13T07:55:24;25.37;;;2.40;;
2772;SDS011;1394;47.044;15.744;2023-03-13T07:57:51;25.97;;;2.40;;
2772;SDS011;1394;47.044;15.744;2023-03-13T08:00:21;25.60;;;2.73;;
2772;SDS011;1394;47.044;15.744;2023-03-13T08:02:49;25.70;;;2.37;;
2772;SDS011;1394;47.044;15.744;2023-03-13T08:05:18;25.30;;;2.30;;
2772;SDS011;1394;47.044;15.744;2023-03-13T08:07:46;26.30;;;2.13;;
2772;SDS011;1394;47.044;15.744;2023-03-13T08:10:15;25.60;;;2.50;;
2772;SDS011;1394;47.044;15.744;2023-03-13T08:12:44;26.83;;;2.60;;
2772;SDS011;1394;47.044;15.744;2023-03-13T08:15:11;28.03;;;2.70;;
2772;SDS011;1394;47.044;15.744;2023-03-13T08:17:38;26.40;;;2.03;;
2772;SDS011;1394;47.044;15.744;2023-03-13T08:20:06;25.97;;;2.40;;
2772;SDS011;1394;47.044;15.744;2023-03-13T08:22:34;25.47;;;2.27;;
2772;SDS011;1394;47.044;15.744;2023-03-13T08:25:02;25.73;;;2.30;;
2772;SDS011;1394;47.044;15.744;2023-03-13T08:27:30;25.70;;;2.47;;
2772;SDS011;1394;47.044;15.744;2023-03-13T08:29:57;27.70;;;2.47;;
2772;SDS011;1394;47.044;15.744;2023-03-13T08:32:25;25.90;;;2.20;;
2772;SDS011;1394;47.044;15.744;2023-03-13T08:34:54;26.40;;;2.60;;
2772;SDS011;1394;47.044;15.744;2023-03-13T08:37:22;26.43;;;3.17;;
2772;SDS011;1394;47.044;15.744;2023-03-13T08:39:49;27.13;;;3.13;;
2772;SDS011;1394;47.044;15.744;2023-03-13T08:42:18;25.50;;;2.30;;
2772;SDS011;1394;47.044;15.744;2023-03-13T08:44:46;26.47;;;1.83;;
2772;SDS011;1394;47.044;15.744;2023-03-13T08:47:15;25.37;;;2.10;;
2772;SDS011;1394;47.044;15.744;2023-03-13T08:49:43;26.20;;;2.37;;
2772;SDS011;1394;47.044;15.744;2023-03-13T08:52:10;26.73;;;2.90;;
2772;SDS011;1394;47.044;15.744;2023-03-13T08:54:38;26.07;;;2.67;;
2772;SDS011;1394;47.044;15.744;2023-03-13T08:57:05;25.63;;;2.33;;
2772;SDS011;1394;47.044;15.744;2023-03-13T08:59:32;26.30;;;2.87;;
2772;SDS011;1394;47.044;15.744;2023-03-13T09:02:01;27.33;;;3.87;;
2772;SDS011;1394;47.044;15.744;2023-03-13T09:04:29;26.00;;;2.90;;
2772;SDS011;1394;47.044;15.744;2023-03-13T09:07:00;26.20;;;2.90;;
2772;SDS011;1394;47.044;15.744;2023-03-13T09:09:27;25.43;;;2.37;;
2772;SDS011;1394;47.044;15.744;2023-03-13T09:11:55;25.30;;;2.00;;
2772;SDS011;1394;47.044;15.744;2023-03-13T09:14:22;25.10;;;1.97;;
2772;SDS011;1394;47.044;15.744;2023-03-13T09:16:49;25.67;;;2.20;;
2772;SDS011;1394;47.044;15.744;2023-03-13T09:19:21;25.80;;;2.20;;
2772;SDS011;1394;47.044;15.744;2023-03-13T09:21:48;25.67;;;2.20;;
2772;SDS011;1394;47.044;15.744;2023-03-13T09:24:18;27.20;;;2.37;;
2772;SDS011;1394;47.044;15.744;2023-03-13T09:26:46;25.63;;;2.30;;
2772;SDS011;1394;47.044;15.744;2023-03-13T09:29:15;26.30;;;2.70;;
2772;SDS011;1394;47.044;15.744;2023-03-13T09:31:46;26.03;;;2.93;;
2772;SDS011;1394;47.044;15.744;2023-03-13T09:34:13;26.13;;;2.90;;
2772;SDS011;1394;47.044;15.744;2023-03-13T09:36:42;26.57;;;3.50;;
2772;SDS011;1394;47.044;15.744;2023-03-13T09:39:09;31.37;;;3.20;;
2772;SDS011;1394;47.044;15.744;2023-03-13T09:41:38;25.77;;;2.77;;
2772;SDS011;1394;47.044;15.744;2023-03-13T09:44:10;25.77;;;2.80;;
2772;SDS011;1394;47.044;15.744;2023-03-13T09:46:42;26.13;;;2.80;;
2772;SDS011;1394;47.044;15.744;2023-03-13T09:49:12;25.70;;;2.67;;
2772;SDS011;1394;47.044;15.744;2023-03-13T09:51:42;25.73;;;2.63;;
2772;SDS011;1394;47.044;15.744;2023-03-13T09:54:14;25.87;;;2.80;;
2772;SDS011;1394;47.044;15.744;2023-03-13T09:56:46;26.10;;;2.73;;
2772;SDS011;1394;47.044;15.744;2023-03-13T09:59:17;26.10;;;2.60;;
2772;SDS011;1394;47.044;15.744;2023-03-13T10:01:47;26.00;;;2.33;;
2772;SDS011;1394;47.044;15.744;2023-03-13T10:04:25;25.80;;;2.20;;
2772;SDS011;1394;47.044;15.744;2023-03-13T10:06:57;26.20;;;2.80;;
2772;SDS011;1394;47.044;15.744;2023-03-13T10:09:27;25.70;;;2.40;;
2772;SDS011;1394;47.044;15.744;2023-03-13T10:11:59;26.00;;;2.37;;
2772;SDS011;1394;47.044;15.744;2023-03-13T10:14:29;26.53;;;3.00;;
2772;SDS011;1394;47.044;15.744;2023-03-13T10:16:59;25.63;;;2.63;;
2772;SDS011;1394;47.044;15.744;2023-03-13T10:19:31;26.50;;;3.10;;
2772;SDS011;1394;47.044;15.744;2023-03-13T10:22:00;26.07;;;2.67;;
2772;SDS011;1394;47.044;15.744;2023-03-13T10:24:31;26.33;;;2.70;;
2772;SDS011;1394;47.044;15.744;2023-03-13T10:27:00;26.37;;;2.70;;
2772;SDS011;1394;47.044;15.744;2023-03-13T10:29:28;26.23;;;2.53;;
2772;SDS011;1394;47.044;15.744;2023-03-13T10:31:57;26.57;;;2.50;;
2772;SDS011;1394;47.044;15.744;2023-03-13T10:34:43;25.80;;;2.10;;
2772;SDS011;1394;47.044;15.744;2023-03-13T10:37:13;26.60;;;2.50;;
2772;SDS011;1394;47.044;15.744;2023-03-13T10:39:40;26.57;;;2.47;;
2772;SDS011;1394;47.044;15.744;2023-03-13T10:42:08;25.83;;;2.00;;
2772;SDS011;1394;47.044;15.744;2023-03-13T10:44:36;27.70;;;2.30;;
2772;SDS011;1394;47.044;15.744;2023-03-13T10:47:05;26.07;;;2.07;;
2772;SDS011;1394;47.044;15.744;2023-03-13T10:49:32;25.93;;;2.20;;
2772;SDS011;1394;47.044;15.744;2023-03-13T10:52:01;28.40;;;2.30;;
2772;SDS011;1394;47.044;15.744;2023-03-13T10:54:32;25.93;;;1.87;;
2772;SDS011;1394;47.044;15.744;2023-03-13T10:57:07;26.37;;;2.10;;
2772;SDS011;1394;47.044;15.744;2023-03-13T10:59:38;26.00;;;2.00;;
2772;SDS011;1394;47.044;15.744;2023-03-13T11:02:12;25.67;;;1.80;;
2772;SDS011;1394;47.044;15.744;2023-03-13T11:04:43;26.80;;;1.90;;
2772;SDS011;1394;47.044;15.744;2023-03-13T11:07:19;27.40;;;2.00;;
2772;SDS011;1394;47.044;15.744;2023-03-13T11:09:54;26.63;;;1.90;;
2772;SDS011;1394;47.044;15.744;2023-03-13T11:12:23;26.03;;;1.77;;
2772;SDS011;1394;47.044;15.744;2023-03-13T11:14:55;26.27;;;1.73;;
2772;SDS011;1394;47.044;15.744;2023-03-13T11:17:23;25.50;;;1.50;;
2772;SDS011;1394;47.044;15.744;2023-03-13T11:19:54;26.40;;;1.53;;
2772;SDS011;1394;47.044;15.744;2023-03-13T11:22:28;26.57;;;1.40;;
2772;SDS011;1394;47.044;15.744;2023-03-13T11:25:07;28.27;;;1.40;;
2772;SDS011;1394;47.044;15.744;2023-03-13T11:27:37;25.80;;;1.33;;
2772;SDS011;1394;47.044;15.744;2023-03-13T11:30:14;25.90;;;1.40;;
2772;SDS011;1394;47.044;15.744;2023-03-13T11:32:42;25.93;;;1.23;;
2772;SDS011;1394;47.044;15.744;2023-03-13T11:35:16;25.90;;;1.43;;
2772;SDS011;1394;47.044;15.744;2023-03-13T11:37:46;25.60;;;1.20;;
2772;SDS011;1394;47.044;15.744;2023-03-13T11:40:19;27.43;;;1.63;;
2772;SDS011;1394;47.044;15.744;2023-03-13T11:42:51;26.00;;;1.30;;
2772;SDS011;1394;47.044;15.744;2023-03-13T11:45:28;26.30;;;1.43;;
2772;SDS011;1394;47.044;15.744;2023-03-13T11:47:58;25.90;;;1.43;;
2772;SDS011;1394;47.044;15.744;2023-03-13T11:50:34;26.47;;;1.50;;
2772;SDS011;1394;47.044;15.744;2023-03-13T11:53:06;26.10;;;1.30;;
2772;SDS011;1394;47.044;15.744;2023-03-13T11:55:43;25.80;;;1.40;;
2772;SDS011;1394;47.044;15.744;2023-03-13T11:58:18;25.90;;;1.50;;
2772;SDS011;1394;47.044;15.744;2023-03-13T12:00:51;29.47;;;1.53;;
2772;SDS011;1394;47.044;15.744;2023-03-13T12:03:21;25.90;;;1.13;;
2772;SDS011;1394;47.044;15.744;2023-03-13T12:05:52;25.70;;;1.20;;
2772;SDS011;1394;47.044;15.744;2023-03-13T12:08:22;25.80;;;1.20;;
2772;SDS011;1394;47.044;15.744;2023-03-13T12:10:57;26.47;;;1.57;;
2772;SDS011;1394;47.044;15.744;2023-03-13T12:13:28;27.20;;;1.47;;
2772;SDS011;1394;47.044;15.744;2023-03-13T12:15:57;26.27;;;1.20;;
2772;SDS011;1394;47.044;15.744;2023-03-13T12:18:27;26.27;;;1.50;;
2772;SDS011;1394;47.044;15.744;2023-03-13T12:20:59;25.80;;;1.40;;
2772;SDS011;1394;47.044;15.744;2023-03-13T12:23:30;28.47;;;1.60;;
2772;SDS011;1394;47.044;15.744;2023-03-13T12:26:03;25.80;;;1.23;;
2772;SDS011;1394;47.044;15.744;2023-03-13T12:28:34;26.97;;;1.40;;
2772;SDS011;1394;47.044;15.744;2023-03-13T12:31:06;26.40;;;1.40;;
2772;SDS011;1394;47.044;15.744;2023-03-13T12:33:34;26.00;;;1.50;;
2772;SDS011;1394;47.044;15.744;2023-03-13T12:36:05;26.60;;;1.60;;
2772;SDS011;1394;47.044;15.744;2023-03-13T12:38:35;26.10;;;1.50;;
2772;SDS011;1394;47.044;15.744;2023-03-13T12:41:07;26.10;;;1.20;;
2772;SDS011;1394;47.044;15.744;2023-03-13T12:43:38;26.37;;;1.57;;
2772;SDS011;1394;47.044;15.744;2023-03-13T12:46:23;26.80;;;1.40;;
2772;SDS011;1394;47.044;15.744;2023-03-13T12:51:48;26.80;;;1.50;;
2772;SDS011;1394;47.044;15.744;2023-03-13T12:57:07;26.17;;;1.43;;
2772;SDS011;1394;47.044;15.744;2023-03-13T12:59:39;26.30;;;1.60;;
2772;SDS011;1394;47.044;15.744;2023-03-13T13:02:13;27.60;;;2.10;;
2772;SDS011;1394;47.044;15.744;2023-03-13T13:04:41;26.33;;;1.60;;
2772;SDS011;1394;47.044;15.744;2023-03-13T13:07:17;26.57;;;1.60;;
2772;SDS011;1394;47.044;15.744;2023-03-13T13:09:58;26.07;;;1.20;;
2772;SDS011;1394;47.044;15.744;2023-03-13T13:12:27;26.20;;;1.30;;
2772;SDS011;1394;47.044;15.744;2023-03-13T13:14:59;28.07;;;2.03;;
2772;SDS011;1394;47.044;15.744;2023-03-13T13:17:41;28.80;;;1.50;;
2772;SDS011;1394;47.044;15.744;2023-03-13T13:20:27;26.60;;;1.57;;
2772;SDS011;1394;47.044;15.744;2023-03-13T13:22:56;26.00;;;1.10;;
2772;SDS011;1394;47.044;15.744;2023-03-13T13:25:41;26.40;;;1.23;;
2772;SDS011;1394;47.044;15.744;2023-03-13T13:28:23;26.17;;;1.40;;
2772;SDS011;1394;47.044;15.744;2023-03-13T13:30:53;26.67;;;1.33;;
2772;SDS011;1394;47.044;15.744;2023-03-13T13:33:33;26.40;;;1.80;;
2772;SDS011;1394;47.044;15.744;2023-03-13T13:38:47;25.77;;;1.27;;
2772;SDS011;1394;47.044;15.744;2023-03-13T13:41:25;26.07;;;1.40;;
2772;SDS011;1394;47.044;15.744;2023-03-13T13:46:44;31.90;;;2.03;;
2772;SDS011;1394;47.044;15.744;2023-03-13T13:49:15;37.00;;;3.33;;
2772;SDS011;1394;47.044;15.744;2023-03-13T13:52:06;27.03;;;1.60;;
2772;SDS011;1394;47.044;15.744;2023-03-13T13:54:52;26.07;;;1.37;;
2772;SDS011;1394;47.044;15.744;2023-03-13T13:57:20;26.20;;;1.27;;
2772;SDS011;1394;47.044;15.744;2023-03-13T13:59:49;26.00;;;1.20;;
2772;SDS011;1394;47.044;15.744;2023-03-13T14:02:21;26.70;;;1.43;;
2772;SDS011;1394;47.044;15.744;2023-03-13T14:04:50;26.07;;;1.47;;
2772;SDS011;1394;47.044;15.744;2023-03-13T14:07:20;27.00;;;1.47;;
2772;SDS011;1394;47.044;15.744;2023-03-13T14:09:53;26.70;;;1.50;;
2772;SDS011;1394;47.044;15.744;2023-03-13T14:12:24;26.43;;;1.50;;
2772;SDS011;1394;47.044;15.744;2023-03-13T14:17:40;26.57;;;1.30;;
2772;SDS011;1394;47.044;15.744;2023-03-13T14:20:19;26.30;;;1.47;;
2772;SDS011;1394;47.044;15.744;2023-03-13T14:22:50;26.10;;;1.20;;
2772;SDS011;1394;47.044;15.744;2023-03-13T14:25:18;26.23;;;1.60;;
2772;SDS011;1394;47.044;15.744;2023-03-13T14:27:47;26.20;;;1.20;;
2772;SDS011;1394;47.044;15.744;2023-03-13T14:30:14;26.47;;;1.30;;
2772;SDS011;1394;47.044;15.744;2023-03-13T14:32:43;29.10;;;1.40;;
2772;SDS011;1394;47.044;15.744;2023-03-13T14:35:12;35.57;;;2.20;;
2772;SDS011;1394;47.044;15.744;2023-03-13T14:37:41;26.43;;;1.47;;
2772;SDS011;1394;47.044;15.744;2023-03-13T14:40:18;26.67;;;1.40;;
2772;SDS011;1394;47.044;15.744;2023-03-13T14:42:45;26.37;;;1.30;;
2772;SDS011;1394;47.044;15.744;2023-03-13T14:45:14;26.20;;;1.40;;
2772;SDS011;1394;47.044;15.744;2023-03-13T14:47:44;25.70;;;1.20;;
2772;SDS011;1394;47.044;15.744;2023-03-13T14:50:12;26.93;;;1.53;;
2772;SDS011;1394;47.044;15.744;2023-03-13T14:52:43;26.20;;;1.30;;
2772;SDS011;1394;47.044;15.744;2023-03-13T14:55:24;25.70;;;1.30;;
2772;SDS011;1394;47.044;15.744;2023-03-13T14:57:54;25.77;;;1.47;;
2772;SDS011;1394;47.044;15.744;2023-03-13T15:00:33;27.20;;;1.33;;
2772;SDS011;1394;47.044;15.744;2023-03-13T15:03:20;27.53;;;1.60;;
2772;SDS011;1394;47.044;15.744;2023-03-13T15:06:12;26.90;;;1.70;;
2772;SDS011;1394;47.044;15.744;2023-03-13T15:08:40;26.13;;;1.73;;
2772;SDS011;1394;47.044;15.744;2023-03-13T15:14:01;26.10;;;1.63;;
2772;SDS011;1394;47.044;15.744;2023-03-13T15:16:29;25.87;;;1.60;;
2772;SDS011;1394;47.044;15.744;2023-03-13T15:18:57;26.23;;;1.50;;